(°C)
(°C)
-3°
-3°
-4°
-4°
-4°
-3°
-3°
SSO
SSO
SSO
SSO
SSO
SSO
SSO
(km/h)
26-53
26-55
27-56
26-57
25-52
24-50
24-50
(mm)
0
0
0
0.9
1.3
1.6
1.3
(%)
32
44
46
98
99
99
99

Élévation du soleil

/ 3.5°
sun-icon
UV 0
07:59
18:00
Gibbeuse décroissante (212°)
18:56
10:52

METAR pour 55.27°N 86.11°E (UNEE)

Heure Conditions Température/
Point de rosée
Vent Visibilité Météo Nuages Pression Changement Brut
VFR 5°C / -3°C 190º 17kt Gust 27kt >10km - Overcast 4100ft 1018 No Significant change UNEE 231000Z 19009G14MPS 9999 OVC041 05/M03 Q1018 R23/CLRD60 NOSIG RMK QFE740
VFR 5°C / -3°C 190º 17kt Gust 27kt >10km - Broken Clouds 3800ft 1018 No Significant change UNEE 230930Z 19009G14MPS 9999 BKN038 05/M03 Q1018 R23/CLRD60 NOSIG RMK QFE740
VFR 5°C / -3°C 190º 17kt Gust 29kt >10km - Broken Clouds 3800ft 1019 No Significant change UNEE 230900Z 19009G15MPS 9999 BKN038 05/M03 Q1019 R23/CLRD60 NOSIG RMK QFE741
VFR 5°C / -3°C 200º 16kt >10km - Broken Clouds 3700ft 1019 No Significant change UNEE 230830Z 20008MPS 9999 BKN037 05/M03 Q1019 R23/CLRD60 NOSIG RMK QFE741
VFR 5°C / -3°C 190º 17kt Gust 29kt >10km - Scattered Clouds 3400ft 1019 No Significant change UNEE 230800Z 19009G15MPS 9999 SCT034 05/M03 Q1019 R23/CLRD60 NOSIG RMK QFE741
VFR 5°C / -3°C 200º 17kt Gust 29kt >10km - Scattered Clouds 3500ft 1020 No Significant change UNEE 230730Z 20009G15MPS 9999 SCT035 05/M03 Q1020 R23/CLRD60 NOSIG RMK QFE742
VFR 4°C / -4°C 190º 16kt >10km - Scattered Clouds 3500ft 1020 No Significant change UNEE 230700Z 19008MPS 9999 SCT035 04/M04 Q1020 R23/CLRD60 NOSIG RMK QFE742
VFR 4°C / -4°C 180º 16kt >10km - Scattered Clouds 3600ft 1020 No Significant change UNEE 230630Z 18008MPS 9999 SCT036 04/M04 Q1020 R23/CLRD60 NOSIG RMK QFE742
VFR 3°C / -4°C 180º 14kt >10km - Scattered Clouds 3600ft 1021 No Significant change UNEE 230600Z 18007MPS 9999 SCT036 03/M04 Q1021 R23/CLRD60 NOSIG RMK QFE742
VFR 3°C / -4°C 180º 14kt >10km - Scattered Clouds 3900ft 1021 No Significant change UNEE 230530Z 18007MPS 9999 SCT039CB 03/M04 Q1021 R23/CLRD60 NOSIG RMK QFE743
VFR 3°C / -4°C 180º 16kt Gust 27kt >10km - Scattered Clouds 3700ft 1021 No Significant change UNEE 230500Z 18008G14MPS 9999 SCT037CB 03/M04 Q1021 R23/CLRD60 NOSIG RMK QFE743
VFR 3°C / -4°C 180º 16kt Gust 25kt >10km - Scattered Clouds 3900ft 1021 No Significant change UNEE 230430Z 18008G13MPS 9999 SCT039CB 03/M04 Q1021 R23/CLRD60 NOSIG RMK QFE743
VFR 2°C / -4°C 180º 16kt >10km - Scattered Clouds 4000ft 1022 No Significant change UNEE 230400Z 18008MPS 9999 SCT040CB 02/M04 Q1022 R23/CLRD60 NOSIG RMK QFE743
VFR 2°C / -4°C 170º 14kt Gust 23kt >10km - Scattered Clouds 4000ft 1022 No Significant change UNEE 230330Z 17007G12MPS 9999 SCT040CB 02/M04 Q1022 R23/CLRD60 NOSIG RMK QFE743
VFR 2°C / -4°C 170º 14kt Gust 25kt >10km - Scattered Clouds 4000ft 1022 No Significant change UNEE 230300Z 17007G13MPS 9999 SCT040CB 02/M04 Q1022 R23/CLRD60 NOSIG RMK QFE743
VFR 2°C / -4°C 170º 16kt >10km - Scattered Clouds 4600ft 1022 No Significant change UNEE 230230Z 17008MPS 9999 SCT046 02/M04 Q1022 R23/CLRD60 NOSIG RMK QFE744
VFR 1°C / -4°C 170º 14kt >10km - Scattered Clouds 4600ft 1022 No Significant change UNEE 230200Z 17007MPS 9999 SCT046 01/M04 Q1022 R23/CLRD60 NOSIG RMK QFE744
VFR 1°C / -3°C 160º 12kt >10km - Scattered Clouds 4600ft 1023 No Significant change UNEE 230130Z 16006MPS 9999 SCT046 01/M03 Q1023 R23/CLRD60 NOSIG RMK QFE744
VFR 0°C / -3°C 170º 10kt >10km - Scattered Clouds 4600ft 1023 No Significant change UNEE 230100Z 17005MPS 9999 SCT046 00/M03 Q1023 R23/CLRD60 NOSIG RMK QFE744
VFR 0°C / -3°C 170º 12kt >10km - Scattered Clouds 4600ft 1023 No Significant change UNEE 230030Z 17006MPS 9999 SCT046 00/M03 Q1023 R23/CLRD60 NOSIG RMK QFE744
VFR 1°C / -3°C 180º 12kt >10km - Scattered Clouds 4600ft 1023 No Significant change UNEE 230000Z 18006MPS 9999 SCT046 01/M03 Q1023 R23/CLRD60 NOSIG RMK QFE744
VFR 1°C / -3°C 170º 10kt >10km - Overcast 4600ft 1023 No Significant change UNEE 222330Z 17005MPS 9999 OVC046 01/M03 Q1023 R23/CLRD60 NOSIG RMK QFE744
VFR 2°C / -2°C 180º 12kt >10km - Overcast 4600ft 1023 No Significant change UNEE 222300Z 18006MPS 9999 OVC046 02/M02 Q1023 R23/CLRD60 NOSIG RMK QFE744
VFR 2°C / -2°C 180º 14kt >10km - Overcast 4300ft 1023 No Significant change UNEE 222230Z 18007MPS 9999 OVC043 02/M02 Q1023 R23/CLRD60 NOSIG RMK QFE744

VFR

5°C / -3°C

[Plus]
Vent 190º 17kt Gust 27kt
Visibilité >10km
Météo -
Nuages Overcast 4100ft
Pression 1018
Changement No Significant change
Brut UNEE 231000Z 19009G14MPS 9999 OVC041 05/M03 Q1018 R23/CLRD60 NOSIG RMK QFE740

VFR

5°C / -3°C

[Plus]
Vent 190º 17kt Gust 27kt
Visibilité >10km
Météo -
Nuages Broken Clouds 3800ft
Pression 1018
Changement No Significant change
Brut UNEE 230930Z 19009G14MPS 9999 BKN038 05/M03 Q1018 R23/CLRD60 NOSIG RMK QFE740

VFR

5°C / -3°C

[Plus]
Vent 190º 17kt Gust 29kt
Visibilité >10km
Météo -
Nuages Broken Clouds 3800ft
Pression 1019
Changement No Significant change
Brut UNEE 230900Z 19009G15MPS 9999 BKN038 05/M03 Q1019 R23/CLRD60 NOSIG RMK QFE741

VFR

5°C / -3°C

[Plus]
Vent 200º 16kt
Visibilité >10km
Météo -
Nuages Broken Clouds 3700ft
Pression 1019
Changement No Significant change
Brut UNEE 230830Z 20008MPS 9999 BKN037 05/M03 Q1019 R23/CLRD60 NOSIG RMK QFE741

VFR

5°C / -3°C

[Plus]
Vent 190º 17kt Gust 29kt
Visibilité >10km
Météo -
Nuages Scattered Clouds 3400ft
Pression 1019
Changement No Significant change
Brut UNEE 230800Z 19009G15MPS 9999 SCT034 05/M03 Q1019 R23/CLRD60 NOSIG RMK QFE741

VFR

5°C / -3°C

[Plus]
Vent 200º 17kt Gust 29kt
Visibilité >10km
Météo -
Nuages Scattered Clouds 3500ft
Pression 1020
Changement No Significant change
Brut UNEE 230730Z 20009G15MPS 9999 SCT035 05/M03 Q1020 R23/CLRD60 NOSIG RMK QFE742

VFR

4°C / -4°C

[Plus]
Vent 190º 16kt
Visibilité >10km
Météo -
Nuages Scattered Clouds 3500ft
Pression 1020
Changement No Significant change
Brut UNEE 230700Z 19008MPS 9999 SCT035 04/M04 Q1020 R23/CLRD60 NOSIG RMK QFE742

VFR

4°C / -4°C

[Plus]
Vent 180º 16kt
Visibilité >10km
Météo -
Nuages Scattered Clouds 3600ft
Pression 1020
Changement No Significant change
Brut UNEE 230630Z 18008MPS 9999 SCT036 04/M04 Q1020 R23/CLRD60 NOSIG RMK QFE742

VFR

3°C / -4°C

[Plus]
Vent 180º 14kt
Visibilité >10km
Météo -
Nuages Scattered Clouds 3600ft
Pression 1021
Changement No Significant change
Brut UNEE 230600Z 18007MPS 9999 SCT036 03/M04 Q1021 R23/CLRD60 NOSIG RMK QFE742

VFR

3°C / -4°C

[Plus]
Vent 180º 14kt
Visibilité >10km
Météo -
Nuages Scattered Clouds 3900ft
Pression 1021
Changement No Significant change
Brut UNEE 230530Z 18007MPS 9999 SCT039CB 03/M04 Q1021 R23/CLRD60 NOSIG RMK QFE743

VFR

3°C / -4°C

[Plus]
Vent 180º 16kt Gust 27kt
Visibilité >10km
Météo -
Nuages Scattered Clouds 3700ft
Pression 1021
Changement No Significant change
Brut UNEE 230500Z 18008G14MPS 9999 SCT037CB 03/M04 Q1021 R23/CLRD60 NOSIG RMK QFE743

VFR

3°C / -4°C

[Plus]
Vent 180º 16kt Gust 25kt
Visibilité >10km
Météo -
Nuages Scattered Clouds 3900ft
Pression 1021
Changement No Significant change
Brut UNEE 230430Z 18008G13MPS 9999 SCT039CB 03/M04 Q1021 R23/CLRD60 NOSIG RMK QFE743

VFR

2°C / -4°C

[Plus]
Vent 180º 16kt
Visibilité >10km
Météo -
Nuages Scattered Clouds 4000ft
Pression 1022
Changement No Significant change
Brut UNEE 230400Z 18008MPS 9999 SCT040CB 02/M04 Q1022 R23/CLRD60 NOSIG RMK QFE743

VFR

2°C / -4°C

[Plus]
Vent 170º 14kt Gust 23kt
Visibilité >10km
Météo -
Nuages Scattered Clouds 4000ft
Pression 1022
Changement No Significant change
Brut UNEE 230330Z 17007G12MPS 9999 SCT040CB 02/M04 Q1022 R23/CLRD60 NOSIG RMK QFE743

VFR

2°C / -4°C

[Plus]
Vent 170º 14kt Gust 25kt
Visibilité >10km
Météo -
Nuages Scattered Clouds 4000ft
Pression 1022
Changement No Significant change
Brut UNEE 230300Z 17007G13MPS 9999 SCT040CB 02/M04 Q1022 R23/CLRD60 NOSIG RMK QFE743

VFR

2°C / -4°C

[Plus]
Vent 170º 16kt
Visibilité >10km
Météo -
Nuages Scattered Clouds 4600ft
Pression 1022
Changement No Significant change
Brut UNEE 230230Z 17008MPS 9999 SCT046 02/M04 Q1022 R23/CLRD60 NOSIG RMK QFE744

VFR

1°C / -4°C

[Plus]
Vent 170º 14kt
Visibilité >10km
Météo -
Nuages Scattered Clouds 4600ft
Pression 1022
Changement No Significant change
Brut UNEE 230200Z 17007MPS 9999 SCT046 01/M04 Q1022 R23/CLRD60 NOSIG RMK QFE744

VFR

1°C / -3°C

[Plus]
Vent 160º 12kt
Visibilité >10km
Météo -
Nuages Scattered Clouds 4600ft
Pression 1023
Changement No Significant change
Brut UNEE 230130Z 16006MPS 9999 SCT046 01/M03 Q1023 R23/CLRD60 NOSIG RMK QFE744

VFR

0°C / -3°C

[Plus]
Vent 170º 10kt
Visibilité >10km
Météo -
Nuages Scattered Clouds 4600ft
Pression 1023
Changement No Significant change
Brut UNEE 230100Z 17005MPS 9999 SCT046 00/M03 Q1023 R23/CLRD60 NOSIG RMK QFE744

VFR

0°C / -3°C

[Plus]
Vent 170º 12kt
Visibilité >10km
Météo -
Nuages Scattered Clouds 4600ft
Pression 1023
Changement No Significant change
Brut UNEE 230030Z 17006MPS 9999 SCT046 00/M03 Q1023 R23/CLRD60 NOSIG RMK QFE744

VFR

1°C / -3°C

[Plus]
Vent 180º 12kt
Visibilité >10km
Météo -
Nuages Scattered Clouds 4600ft
Pression 1023
Changement No Significant change
Brut UNEE 230000Z 18006MPS 9999 SCT046 01/M03 Q1023 R23/CLRD60 NOSIG RMK QFE744

VFR

1°C / -3°C

[Plus]
Vent 170º 10kt
Visibilité >10km
Météo -
Nuages Overcast 4600ft
Pression 1023
Changement No Significant change
Brut UNEE 222330Z 17005MPS 9999 OVC046 01/M03 Q1023 R23/CLRD60 NOSIG RMK QFE744

VFR

2°C / -2°C

[Plus]
Vent 180º 12kt
Visibilité >10km
Météo -
Nuages Overcast 4600ft
Pression 1023
Changement No Significant change
Brut UNEE 222300Z 18006MPS 9999 OVC046 02/M02 Q1023 R23/CLRD60 NOSIG RMK QFE744

VFR

2°C / -2°C

[Plus]
Vent 180º 14kt
Visibilité >10km
Météo -
Nuages Overcast 4300ft
Pression 1023
Changement No Significant change
Brut UNEE 222230Z 18007MPS 9999 OVC043 02/M02 Q1023 R23/CLRD60 NOSIG RMK QFE744

TAF pour 55.27°N 86.11°E (UNEE)

From till


From till Wind 210º 17kt. Gust 31kt. Visibility 8000m. Light Showers Rain . Broken Clouds 3000ft.
Temporarly from till Wind 230º 25kt. Gust 45kt. Visibility 3000m. Light Showers Rain Light Showers Snow . Broken Clouds 1000ft.

Brut: TAF UNEE 230800Z 2309/2409 21009G16MPS 8000 -SHRA BKN030CB TEMPO 2309/2403 23013G23MPS 3000 -SHRASN BKN010CB

Les images satellites et les pluies actuelles pour 55.27°N 86.11°E

Le marqueur est placé sur 55.27°N 86.11°E. [Plus]

L'image satellite en temps réel combine la lumière visible pendant la journée et le rayonnement infrarouge pendant la nuit. La nuit, l'image n'est pas sombre car le rayonnement infrarouge permet de détecter les différences de température. Malheureusement, les nuages bas et le brouillard sont difficiles à distinguer des températures au sol et peuvent donc être presque invisibles pendant la nuit. Les images des satellites Météosat pour l'Europe sont mises à jour en temps réel toutes les 5 minutes. Les images GOES-16/GOES-17 (Amérique du Nord et du Sud) et Himawari (Asie) sont mises à jour toutes les 10 minutes.

Copyright 2021 EUMETSAT / meteoblue. / Copyright 2021 meteoblue

Radar et prévision de précipitation à court terme pour 55.27°N 86.11°E

Bruine
Légère
Modéré
Fort
Très fort
Grêle

Le marqueur est placé sur 55.27°N 86.11°E. Cette animation montre le Radar des précipitations pour les dernières heures, ainsi qu'une 1h prévision. La bruine ou les légères chutes de neiges peuvent ne pas être détectées par le radar. L'intensité des précipitations est visible avec un code couleur allant du bleu clair au violet foncé et orange.